Time;durP1;ratioP1;P1;durP2;ratioP2;P2;SDS_P1;SDS_P2;PMS_P1;PMS_P2;Temp;Humidity;BMP_temperature;BMP_pressure;BME280_temperature;BME280_humidity;BME280_pressure;Samples;Min_cycle;Max_cycle;Signal;HPM_P1;HPM_P2
2021/09/28 00:01:40;;;;;;;9.30;3.60;;;;;;;14.17;65.19;99329.95;235830;1195;139186;-65
2021/09/28 00:06:43;;;;;;;7.70;3.60;;;;;;;14.15;65.14;99329.27;235812;1196;138454;-63
2021/09/28 00:11:50;;;;;;;7.30;3.90;;;;;;;14.12;65.30;99336.04;236274;1195;140096;-63
2021/09/28 00:16:53;;;;;;;7.70;3.60;;;;;;;14.09;65.33;99336.61;236337;1195;138702;-64
2021/09/28 00:21:56;;;;;;;5.90;3.30;;;;;;;14.02;65.20;99336.09;235967;1194;138694;-62
2021/09/28 00:27:00;;;;;;;7.70;3.70;;;;;;;13.97;65.37;99343.75;235900;1196;138887;-64
2021/09/28 00:32:06;;;;;;;8.90;3.40;;;;;;;13.90;65.43;99349.05;235624;1189;139291;-63
2021/09/28 00:37:09;;;;;;;;;;;;;;;13.83;65.45;99344.52;236141;1195;139527;-62
2021/09/28 00:42:12;;;;;;;5.80;3.30;;;;;;;13.78;65.57;99345.96;236091;1195;125573;-62
2021/09/28 00:47:16;;;;;;;7.60;3.30;;;;;;;13.76;65.71;99348.93;235844;1196;138806;-63
2021/09/28 00:52:20;;;;;;;7.30;3.60;;;;;;;13.76;65.72;99349.34;236234;1182;139237;-60
2021/09/28 00:57:23;;;;;;;6.70;3.50;;;;;;;13.71;65.80;99347.16;235349;1195;139325;-62
2021/09/28 01:02:27;;;;;;;8.40;3.50;;;;;;;13.68;65.82;99350.58;236165;1195;138727;-62
2021/09/28 01:07:32;;;;;;;8.60;3.60;;;;;;;13.63;65.79;99358.05;236029;1195;138772;-62
2021/09/28 01:12:35;;;;;;;5.90;3.20;;;;;;;13.57;65.78;99357.05;236279;1195;139370;-61
2021/09/28 01:17:38;;;;;;;7.30;3.10;;;;;;;13.55;65.79;99355.45;235936;1195;139546;-61
2021/09/28 01:22:41;;;;;;;7.50;3.20;;;;;;;13.53;65.85;99351.11;236246;1195;138767;-60
2021/09/28 01:27:44;;;;;;;8.40;3.30;;;;;;;13.48;65.89;99353.35;235996;1195;138591;-62
2021/09/28 01:32:47;;;;;;;4.50;3.10;;;;;;;13.44;65.81;99357.40;236199;1195;138562;-63
2021/09/28 01:37:50;;;;;;;11.30;3.50;;;;;;;13.38;65.75;99359.23;236374;1195;139178;-61
2021/09/28 01:42:53;;;;;;;7.90;3.50;;;;;;;13.27;65.68;99357.63;236054;1195;140378;-63
2021/09/28 01:47:56;;;;;;;7.60;3.70;;;;;;;13.18;65.88;99360.93;235871;1195;138906;-64
2021/09/28 01:52:59;;;;;;;6.00;3.00;;;;;;;13.09;65.86;99363.67;235491;1196;138516;-63
2021/09/28 01:58:02;;;;;;;4.00;2.80;;;;;;;13.02;65.96;99365.92;236309;1195;139613;-64
2021/09/28 02:03:06;;;;;;;8.60;3.20;;;;;;;12.97;66.20;99370.15;236188;1195;139578;-63
2021/09/28 02:08:10;;;;;;;5.40;3.10;;;;;;;12.95;66.04;99370.88;235976;1195;138977;-62
2021/09/28 02:13:14;;;;;;;5.30;3.30;;;;;;;12.91;66.15;99372.91;235712;1195;138660;-61
2021/09/28 02:18:17;;;;;;;6.70;3.20;;;;;;;12.84;65.96;99376.39;235996;1196;138764;-64
2021/09/28 02:23:21;;;;;;;6.60;3.20;;;;;;;12.77;66.31;99379.67;236074;1195;138809;-62
2021/09/28 02:28:24;;;;;;;9.10;3.40;;;;;;;12.74;66.43;99380.94;236168;1195;138910;-61
2021/09/28 02:33:27;;;;;;;8.30;2.90;;;;;;;12.69;66.32;99379.16;236055;1195;138466;-64
2021/09/28 02:38:30;;;;;;;7.50;2.80;;;;;;;12.68;66.63;99381.55;235972;1195;139299;-61
2021/09/28 02:43:34;;;;;;;7.80;2.90;;;;;;;12.67;66.33;99384.61;236247;1195;139583;-61
2021/09/28 02:48:36;;;;;;;6.30;3.30;;;;;;;12.68;66.37;99387.61;236310;1195;138864;-60
2021/09/28 02:53:39;;;;;;;8.40;3.00;;;;;;;12.66;66.57;99386.83;235871;1195;141476;-65
2021/09/28 02:58:43;;;;;;;4.40;2.90;;;;;;;12.61;66.70;99380.58;236050;1195;138652;-65
2021/09/28 03:03:46;;;;;;;5.10;2.80;;;;;;;12.55;66.43;99383.05;235838;1195;138833;-68
2021/09/28 03:08:49;;;;;;;7.80;3.20;;;;;;;12.50;66.53;99377.37;236220;1195;139090;-66
2021/09/28 03:13:53;;;;;;;6.80;3.10;;;;;;;12.46;66.72;99381.38;236310;1194;138593;-66
2021/09/28 03:18:57;;;;;;;6.60;3.00;;;;;;;12.44;66.66;99377.05;236254;1195;139120;-65
2021/09/28 03:24:00;;;;;;;8.50;2.90;;;;;;;12.43;66.68;99377.61;236285;1195;139075;-63
2021/09/28 03:29:03;;;;;;;6.00;2.80;;;;;;;12.44;66.98;99386.61;235997;1195;139197;-68
2021/09/28 03:34:06;;;;;;;5.70;3.10;;;;;;;12.41;66.65;99387.38;235730;1195;140020;-65
2021/09/28 03:39:11;;;;;;;6.50;3.10;;;;;;;12.35;66.57;99387.56;236256;1195;138459;-64
2021/09/28 03:44:15;;;;;;;9.80;3.40;;;;;;;12.27;66.91;99390.61;235858;1195;138515;-65
2021/09/28 03:49:19;;;;;;;6.00;2.90;;;;;;;12.18;66.73;99394.36;235668;1196;140264;-64
2021/09/28 03:54:22;;;;;;;4.70;2.80;;;;;;;12.13;66.83;99399.32;235955;1195;138695;-61
2021/09/28 03:59:25;;;;;;;4.60;2.70;;;;;;;12.15;66.79;99398.83;236318;1195;139694;-62
2021/09/28 04:04:28;;;;;;;6.30;3.00;;;;;;;12.14;67.03;99399.41;236327;1195;139949;-68
2021/09/28 04:09:31;;;;;;;5.20;3.10;;;;;;;12.17;67.21;99407.79;236137;1195;142494;-62
2021/09/28 04:14:34;;;;;;;5.30;2.90;;;;;;;12.19;67.18;99414.07;235786;1195;138943;-63
2021/09/28 04:19:37;;;;;;;3.50;2.70;;;;;;;12.12;66.86;99412.36;235871;1196;139156;-60
2021/09/28 04:24:40;;;;;;;4.30;2.90;;;;;;;12.02;66.77;99418.66;236325;1195;139143;-61
2021/09/28 04:29:44;;;;;;;5.60;3.40;;;;;;;11.95;66.89;99425.27;236213;1195;139705;-66
2021/09/28 04:34:47;;;;;;;4.90;2.60;;;;;;;11.92;67.24;99436.71;236026;1195;138956;-62
2021/09/28 04:39:50;;;;;;;37.70;26.00;;;;;;;11.98;67.40;99434.57;235949;1195;140394;-61
2021/09/28 04:44:53;;;;;;;137.30;96.00;;;;;;;12.10;67.62;99434.86;235792;1196;139747;-63
2021/09/28 04:49:57;;;;;;;8.30;4.20;;;;;;;12.21;67.45;99439.00;235732;1195;139442;-63
2021/09/28 04:55:00;;;;;;;5.90;2.80;;;;;;;12.21;67.17;99438.98;235852;1195;139522;-59
2021/09/28 05:00:04;;;;;;;5.80;3.00;;;;;;;12.19;66.87;99444.29;236098;1196;139147;-64
2021/09/28 05:05:08;;;;;;;7.30;3.40;;;;;;;12.14;66.78;99449.42;235536;1195;139237;-61
2021/09/28 05:10:11;;;;;;;5.20;3.20;;;;;;;12.05;66.90;99450.99;236347;1195;139185;-62
2021/09/28 05:15:14;;;;;;;106.50;74.50;;;;;;;11.96;66.90;99459.16;235812;1196;139388;-60
2021/09/28 05:20:17;;;;;;;6.40;4.00;;;;;;;11.96;67.18;99460.60;235328;1189;139343;-60
2021/09/28 05:25:21;;;;;;;6.00;2.90;;;;;;;11.99;67.07;99462.22;235895;1195;139785;-59
2021/09/28 05:30:24;;;;;;;9.00;3.50;;;;;;;12.00;67.35;99468.52;236316;1194;139021;-61
2021/09/28 05:35:28;;;;;;;7.30;3.10;;;;;;;12.02;67.35;99468.77;235804;1195;139584;-59
2021/09/28 05:40:31;;;;;;;8.80;3.20;;;;;;;12.03;67.18;99467.86;235839;1195;140533;-61
2021/09/28 05:45:34;;;;;;;5.90;3.00;;;;;;;12.00;67.03;99475.10;236059;1195;138909;-60
2021/09/28 05:50:38;;;;;;;4.60;2.90;;;;;;;12.01;67.17;99476.67;236126;1195;140209;-58
2021/09/28 05:55:41;;;;;;;10.00;3.70;;;;;;;11.98;67.08;99477.76;236155;1195;139043;-61
2021/09/28 06:00:44;;;;;;;7.00;3.00;;;;;;;11.99;67.22;99486.74;235855;1195;139520;-62
2021/09/28 06:05:47;;;;;;;6.60;3.40;;;;;;;12.03;67.25;99485.23;235917;1195;141868;-59
2021/09/28 06:10:50;;;;;;;10.00;2.90;;;;;;;12.11;67.23;99489.08;235895;1196;139157;-59
2021/09/28 06:15:53;;;;;;;6.40;3.10;;;;;;;12.18;67.42;99501.42;236129;1195;140372;-61
2021/09/28 06:20:57;;;;;;;7.50;3.00;;;;;;;12.26;67.36;99506.63;235867;1195;138959;-59
2021/09/28 06:26:00;;;;;;;8.30;3.30;;;;;;;12.30;67.19;99505.48;236080;1195;138538;-63
2021/09/28 06:31:04;;;;;;;7.10;2.70;;;;;;;12.36;67.51;99506.20;235881;1196;139015;-63
2021/09/28 06:36:07;;;;;;;9.20;2.80;;;;;;;12.41;67.36;99511.42;235732;1195;139238;-63
2021/09/28 06:41:11;;;;;;;7.30;2.70;;;;;;;12.43;67.31;99514.46;235986;1195;139004;-63
2021/09/28 06:46:14;;;;;;;5.90;2.90;;;;;;;12.51;67.14;99520.35;235930;1195;139414;-64
2021/09/28 06:51:17;;;;;;;4.60;2.90;;;;;;;12.60;67.21;99522.52;235999;1195;138959;-63
2021/09/28 06:56:21;;;;;;;8.90;3.90;;;;;;;12.71;67.19;99521.98;235974;1195;138938;-63
2021/09/28 07:01:24;;;;;;;6.80;3.20;;;;;;;12.76;67.19;99524.86;235854;1195;139084;-64
2021/09/28 07:06:28;;;;;;;6.90;3.80;;;;;;;12.83;67.23;99528.34;236281;1195;138689;-62
2021/09/28 07:11:31;;;;;;;7.90;3.70;;;;;;;12.97;67.16;99535.96;235555;1196;138896;-59
2021/09/28 07:16:35;;;;;;;10.60;4.00;;;;;;;12.98;66.73;99544.13;235885;1195;139155;-64
2021/09/28 07:21:41;;;;;;;5.90;4.20;;;;;;;12.95;66.46;99545.19;235910;1195;139876;-62
2021/09/28 07:26:44;;;;;;;9.50;3.90;;;;;;;12.96;66.65;99557.82;235703;1195;138788;-61
2021/09/28 07:31:47;;;;;;;8.30;3.90;;;;;;;13.00;66.76;99553.63;235869;1195;139335;-62
2021/09/28 07:36:50;;;;;;;6.90;4.20;;;;;;;13.09;66.66;99555.58;236224;1195;140947;-62
2021/09/28 07:41:53;;;;;;;5.70;4.80;;;;;;;13.18;66.89;99551.25;235733;1195;139079;-60
2021/09/28 07:46:58;;;;;;;7.40;4.70;;;;;;;13.28;66.95;99553.47;235957;1195;139823;-61
2021/09/28 07:52:01;;;;;;;137.20;80.40;;;;;;;13.42;67.19;99560.73;235900;1195;140056;-67
2021/09/28 07:57:05;;;;;;;10.50;5.70;;;;;;;13.95;68.12;99560.09;235895;1195;139104;-62
2021/09/28 08:02:08;;;;;;;6.30;4.40;;;;;;;14.10;66.71;99562.83;236143;1195;139497;-62
2021/09/28 08:07:13;;;;;;;9.10;5.20;;;;;;;14.10;66.31;99566.37;235872;1195;139245;-63
2021/09/28 08:12:16;;;;;;;7.30;4.10;;;;;;;14.11;66.08;99566.99;236122;1195;138824;-62
2021/09/28 08:17:21;;;;;;;8.60;4.10;;;;;;;14.12;66.11;99572.65;236120;1195;138959;-61
2021/09/28 08:22:25;;;;;;;357.70;247.00;;;;;;;14.17;66.42;99574.10;235818;1195;139294;-61
2021/09/28 08:32:49;;;;;;;31.10;21.20;;;;;;;16.52;69.36;99570.69;236223;1195;139021;-60
2021/09/28 08:37:52;;;;;;;20.80;11.90;;;;;;;17.58;67.87;99567.77;235777;1195;141000;-64
2021/09/28 08:42:56;;;;;;;13.30;8.70;;;;;;;18.24;66.42;99571.26;235723;1195;138771;-62
2021/09/28 08:47:59;;;;;;;9.90;5.60;;;;;;;18.77;65.11;99572.25;235870;1195;209404;-62
2021/09/28 08:53:03;;;;;;;8.00;5.60;;;;;;;19.06;63.91;99570.29;236038;1191;138815;-64
2021/09/28 08:58:24;;;;;;;7.00;4.60;;;;;;;19.30;63.34;99570.61;235987;1194;139437;-63
2021/09/28 09:03:34;;;;;;;7.60;4.30;;;;;;;19.42;62.27;99569.08;235841;1195;139054;-61
2021/09/28 09:08:38;;;;;;;7.80;4.10;;;;;;;19.37;61.65;99568.23;236292;1195;139112;-61
2021/09/28 09:13:41;;;;;;;7.70;3.70;;;;;;;19.45;61.54;99568.05;236086;1195;138963;-62
2021/09/28 09:18:47;;;;;;;184.10;131.50;;;;;;;19.62;61.33;99567.41;235961;1195;138576;-61
2021/09/28 09:23:53;;;;;;;31.80;22.00;;;;;;;19.78;60.89;99570.64;235647;1195;139569;-61
2021/09/28 09:28:59;;;;;;;18.20;11.90;;;;;;;19.87;60.33;99568.73;235780;1195;139486;-67
2021/09/28 09:34:14;;;;;;;10.30;6.20;;;;;;;19.87;60.00;99570.39;236317;1195;139942;-60
2021/09/28 09:39:17;;;;;;;25.50;7.10;;;;;;;19.96;59.92;99569.39;235954;1195;141892;-62
2021/09/28 09:44:29;;;;;;;358.70;225.80;;;;;;;19.96;59.43;99574.56;235732;1195;140395;-61
2021/09/28 09:49:36;;;;;;;9.40;6.10;;;;;;;19.77;58.49;99577.42;235890;1195;139734;-60
2021/09/28 09:54:41;;;;;;;10.00;5.60;;;;;;;19.11;57.51;99573.90;236350;1194;141348;-62
2021/09/28 09:59:44;;;;;;;8.40;4.00;;;;;;;18.56;57.67;99576.23;235895;1195;139236;-68
2021/09/28 10:04:47;;;;;;;6.50;3.80;;;;;;;18.21;58.24;99583.58;235861;1195;139915;-69
2021/09/28 10:09:51;;;;;;;7.90;4.30;;;;;;;17.92;58.64;99578.44;235949;1194;138609;-63
2021/09/28 10:15:06;;;;;;;8.30;4.40;;;;;;;17.72;59.06;99581.31;236113;1191;139084;-62
2021/09/28 10:20:11;;;;;;;;;;;;;;;17.61;59.36;99579.23;236184;1194;138956;-62
2021/09/28 10:30:35;;;;;;;10.50;4.30;;;;;;;17.54;59.65;99582.46;236123;1195;139026;-62
2021/09/28 10:36:23;;;;;;;13.70;5.00;;;;;;;17.54;59.74;99590.52;235846;1195;139043;-65
2021/09/28 10:41:29;;;;;;;9.20;4.70;;;;;;;17.48;59.77;99594.45;235999;1195;138867;-63
2021/09/28 10:46:39;;;;;;;9.90;4.50;;;;;;;17.39;59.95;99598.39;235725;1191;138365;-61
2021/09/28 10:51:43;;;;;;;13.70;6.40;;;;;;;17.37;60.34;99599.34;235977;1195;139558;-63
2021/09/28 10:56:50;;;;;;;9.10;5.70;;;;;;;17.83;61.81;99591.96;236460;1195;139498;-61
2021/09/28 11:02:22;;;;;;;13.50;5.30;;;;;;;18.45;61.89;99591.21;236069;1195;138552;-65
2021/09/28 11:07:25;;;;;;;9.80;4.70;;;;;;;18.96;61.33;99591.97;236337;1195;139469;-69
2021/09/28 11:12:29;;;;;;;10.40;4.80;;;;;;;19.33;60.95;99590.12;236050;1194;139649;-64
2021/09/28 11:17:33;;;;;;;9.70;4.00;;;;;;;19.65;60.28;99587.16;236284;1195;138497;-64
2021/09/28 11:22:36;;;;;;;8.70;3.90;;;;;;;19.83;59.69;99589.10;236092;1195;139615;-68
2021/09/28 11:27:39;;;;;;;9.70;3.70;;;;;;;19.87;59.03;99588.33;236206;1195;139281;-68
2021/09/28 11:32:55;;;;;;;10.00;3.90;;;;;;;19.86;58.68;99586.48;236088;1195;139201;-62
2021/09/28 11:38:04;;;;;;;6.10;3.70;;;;;;;19.86;58.24;99583.95;235704;1196;139283;-62
2021/09/28 11:43:24;;;;;;;6.60;3.60;;;;;;;19.87;58.03;99581.91;235991;1194;138850;-62
2021/09/28 11:49:00;;;;;;;8.30;3.30;;;;;;;19.98;57.99;99579.92;236237;1195;138922;-62
2021/09/28 11:54:08;;;;;;;10.30;4.00;;;;;;;20.05;57.36;99572.09;235770;1195;140240;-63
2021/09/28 11:59:20;;;;;;;6.60;3.50;;;;;;;20.04;57.17;99570.58;235828;1196;139462;-63
2021/09/28 12:09:29;;;;;;;8.60;3.80;;;;;;;19.89;56.47;99571.92;235879;1195;139185;-62
2021/09/28 12:14:56;;;;;;;9.50;3.90;;;;;;;19.82;56.64;99572.77;235996;1179;139134;-62
2021/09/28 12:20:10;;;;;;;8.80;4.10;;;;;;;19.76;56.70;99581.59;235949;1195;138957;-62
2021/09/28 12:25:26;;;;;;;9.40;4.80;;;;;;;19.67;56.49;99589.51;236070;1195;139615;-61
2021/09/28 12:30:35;;;;;;;10.50;4.30;;;;;;;19.55;56.14;99588.00;236246;1195;139093;-64
2021/09/28 12:35:39;;;;;;;9.70;4.10;;;;;;;19.26;55.86;99579.95;236291;1195;138888;-66
2021/09/28 12:40:42;;;;;;;9.20;4.90;;;;;;;19.02;56.09;99581.93;236370;1195;138964;-62
2021/09/28 12:45:58;;;;;;;9.40;4.30;;;;;;;18.87;56.18;99581.31;236272;1194;138887;-62
2021/09/28 12:51:02;;;;;;;9.20;5.20;;;;;;;18.76;56.56;99584.77;236172;1195;139525;-62
2021/09/28 12:56:07;;;;;;;10.00;4.10;;;;;;;18.69;56.65;99589.55;235904;1195;139105;-61
2021/09/28 13:01:10;;;;;;;119.90;85.20;;;;;;;18.63;56.72;99590.15;235877;1195;139287;-61
2021/09/28 13:06:14;;;;;;;10.60;7.20;;;;;;;18.75;57.24;99590.06;236388;1195;139933;-61
2021/09/28 13:11:17;;;;;;;10.70;6.20;;;;;;;18.98;57.41;99591.50;236092;1195;138881;-62
2021/09/28 13:16:22;;;;;;;21.00;12.90;;;;;;;18.91;56.73;99589.17;235959;1195;140883;-59
2021/09/28 13:21:26;;;;;;;;;;;;;;;18.77;56.79;99583.80;235663;1196;139528;-62
2021/09/28 13:26:29;;;;;;;16.50;11.90;;;;;;;18.64;56.53;99589.02;236042;1195;125588;-59
2021/09/28 13:31:32;;;;;;;15.40;7.10;;;;;;;18.50;56.66;99593.50;236055;1195;138846;-59
2021/09/28 13:36:36;;;;;;;8.20;4.40;;;;;;;18.35;56.65;99600.50;236137;1195;139201;-60
2021/09/28 13:41:40;;;;;;;12.20;4.70;;;;;;;18.22;56.72;99602.67;235922;1195;140890;-58
2021/09/28 13:46:43;;;;;;;10.40;4.60;;;;;;;18.13;56.91;99606.85;235927;1195;139449;-59
2021/09/28 13:51:46;;;;;;;9.80;4.30;;;;;;;18.03;56.89;99602.45;236213;1195;139621;-60
2021/09/28 13:56:49;;;;;;;8.20;4.50;;;;;;;17.96;56.95;99596.21;236293;1195;139360;-60
2021/09/28 14:01:52;;;;;;;8.40;4.30;;;;;;;17.89;57.11;99590.23;236055;1195;138854;-60
2021/09/28 14:06:55;;;;;;;10.10;4.80;;;;;;;17.79;57.21;99590.16;235868;1195;139796;-60
2021/09/28 14:11:59;;;;;;;10.90;4.90;;;;;;;17.72;57.45;99595.15;235776;1195;138600;-59
2021/09/28 14:17:02;;;;;;;9.50;4.40;;;;;;;17.68;57.55;99591.19;236026;1195;139366;-60
2021/09/28 14:22:05;;;;;;;10.20;4.20;;;;;;;17.60;57.37;99590.62;236204;1195;139605;-60
2021/09/28 14:27:08;;;;;;;7.00;4.10;;;;;;;17.52;57.45;99588.38;235756;1195;139245;-59
2021/09/28 14:32:11;;;;;;;11.00;4.50;;;;;;;17.44;57.26;99593.52;235848;1196;138756;-61
2021/09/28 14:37:18;;;;;;;8.80;4.20;;;;;;;17.39;57.52;99595.02;235914;1195;140276;-60
2021/09/28 14:42:22;;;;;;;8.90;4.40;;;;;;;17.32;57.57;99594.52;236211;1195;139091;-58
2021/09/28 14:47:25;;;;;;;9.10;4.00;;;;;;;17.22;57.74;99602.67;235924;1195;139232;-59
2021/09/28 14:52:29;;;;;;;8.60;3.70;;;;;;;17.12;57.82;99608.82;236044;1195;139787;-63
2021/09/28 14:57:32;;;;;;;8.10;3.90;;;;;;;17.08;57.96;99610.64;235918;1195;138731;-60
2021/09/28 15:02:36;;;;;;;6.00;3.60;;;;;;;17.04;58.03;99622.92;236112;1195;138642;-60
2021/09/28 15:07:43;;;;;;;8.40;4.20;;;;;;;17.00;58.19;99629.64;235470;1195;139841;-58
2021/09/28 15:12:46;;;;;;;8.00;4.70;;;;;;;16.97;58.41;99627.77;236068;1195;139432;-61
2021/09/28 15:17:50;;;;;;;17.50;7.20;;;;;;;16.98;58.41;99631.31;235818;1195;139318;-60
2021/09/28 15:22:53;;;;;;;10.70;4.30;;;;;;;16.96;58.42;99631.60;236059;1195;139112;-59
2021/09/28 15:27:56;;;;;;;12.10;5.30;;;;;;;16.93;58.48;99638.29;235986;1195;139148;-62
2021/09/28 15:33:00;;;;;;;33.10;24.60;;;;;;;16.96;59.07;99637.21;235618;1196;139665;-60
2021/09/28 15:38:03;;;;;;;26.70;17.80;;;;;;;17.21;59.87;99640.73;236044;1195;139146;-61
2021/09/28 15:43:08;;;;;;;;;;;;;;;17.57;60.29;99643.95;236003;1196;139727;-59
2021/09/28 15:48:12;;;;;;;13.90;8.50;;;;;;;18.05;60.25;99643.08;235860;1188;126436;-61
2021/09/28 15:53:15;;;;;;;13.50;8.50;;;;;;;18.44;60.05;99646.98;235594;1196;139167;-61
2021/09/28 15:58:18;;;;;;;11.80;7.80;;;;;;;18.74;59.53;99650.33;235891;1195;139543;-63
2021/09/28 16:03:22;;;;;;;190.70;137.80;;;;;;;18.88;58.80;99649.86;235419;1195;139935;-62
2021/09/28 16:08:30;;;;;;;15.20;6.10;;;;;;;18.66;57.38;99647.48;234755;1195;140308;-62
2021/09/28 16:13:46;;;;;;;10.60;4.80;;;;;;;18.34;57.01;99648.16;235420;1196;139264;-64
2021/09/28 16:18:49;;;;;;;13.80;5.80;;;;;;;18.01;57.03;99654.17;236041;1195;139306;-62
2021/09/28 16:23:52;;;;;;;11.70;6.20;;;;;;;17.79;57.16;99663.52;236018;1195;140459;-61
2021/09/28 16:28:55;;;;;;;13.80;6.40;;;;;;;17.55;57.13;99669.64;236098;1195;139865;-60
2021/09/28 16:33:58;;;;;;;14.50;6.80;;;;;;;17.29;57.22;99674.58;236285;1195;139269;-61
2021/09/28 16:39:02;;;;;;;11.30;6.30;;;;;;;17.11;57.63;99675.64;236153;1195;138988;-63
2021/09/28 16:44:05;;;;;;;12.90;6.60;;;;;;;16.95;57.89;99668.48;235986;1195;139396;-62
2021/09/28 16:49:08;;;;;;;13.70;6.10;;;;;;;16.76;58.00;99677.28;235736;1196;139414;-65
2021/09/28 16:54:11;;;;;;;12.90;6.70;;;;;;;16.59;58.32;99678.23;235642;1196;139430;-62
2021/09/28 16:59:15;;;;;;;12.50;7.60;;;;;;;16.44;58.44;99680.42;235950;1195;139730;-63
2021/09/28 17:04:18;;;;;;;63.40;38.90;;;;;;;16.38;58.93;99686.11;236241;1195;138898;-63
2021/09/28 17:09:21;;;;;;;20.70;8.70;;;;;;;16.35;59.01;99692.57;235499;1195;140131;-64
2021/09/28 17:14:24;;;;;;;15.90;7.30;;;;;;;16.21;58.98;99692.88;235671;1195;139318;-59
2021/09/28 17:19:27;;;;;;;11.90;7.60;;;;;;;16.03;59.19;99691.00;236105;1195;139294;-60
2021/09/28 17:24:33;;;;;;;12.40;7.70;;;;;;;15.88;59.48;99690.69;236162;1195;138945;-60
2021/09/28 17:29:37;;;;;;;13.60;6.90;;;;;;;15.73;59.57;99692.67;236211;1195;139274;-61
2021/09/28 17:34:42;;;;;;;15.60;7.90;;;;;;;15.63;60.07;99693.52;236235;1196;140825;-62
2021/09/28 17:39:47;;;;;;;15.10;8.30;;;;;;;15.57;60.13;99701.33;236142;1195;139423;-61
2021/09/28 17:44:50;;;;;;;15.90;7.60;;;;;;;15.51;60.44;99702.86;235816;1195;139476;-61
2021/09/28 17:49:54;;;;;;;18.20;8.40;;;;;;;15.46;60.72;99702.48;235901;1189;139337;-60
2021/09/28 18:00:03;;;;;;;16.90;8.90;;;;;;;15.34;61.26;99704.77;235928;1195;139000;-62
2021/09/28 18:05:13;;;;;;;15.50;8.80;;;;;;;15.26;61.45;99701.38;235552;1194;138839;-61
2021/09/28 18:10:16;;;;;;;18.20;9.20;;;;;;;15.21;61.55;99705.31;235486;1196;138924;-64
2021/09/28 18:15:20;;;;;;;16.40;10.70;;;;;;;15.18;61.58;99700.92;236016;1196;139051;-59
2021/09/28 18:20:25;;;;;;;375.90;281.40;;;;;;;15.17;61.71;99702.63;235810;1196;139440;-61
2021/09/28 18:25:30;;;;;;;24.70;13.70;;;;;;;15.22;61.97;99706.67;235638;1196;139821;-60
2021/09/28 18:30:38;;;;;;;18.10;10.20;;;;;;;15.28;61.69;99715.36;236036;1195;140143;-60
2021/09/28 18:35:41;;;;;;;14.10;8.50;;;;;;;15.25;61.70;99714.55;235814;1196;139403;-60
2021/09/28 18:41:10;;;;;;;20.40;8.30;;;;;;;15.17;61.60;99714.73;235773;1195;139267;-62
2021/09/28 18:46:11;;;;;;;12.70;7.60;;;;;;;15.08;61.57;99716.93;236082;1195;139062;-62
2021/09/28 18:51:19;;;;;;;14.80;7.60;;;;;;;15.02;61.60;99719.00;235432;1195;138879;-61
2021/09/28 18:56:41;;;;;;;13.10;6.70;;;;;;;14.95;61.57;99724.70;234834;1194;138825;-64
2021/09/28 19:01:52;;;;;;;12.60;6.60;;;;;;;14.89;61.68;99725.62;235684;1196;138780;-62
2021/09/28 19:12:13;;;;;;;10.40;6.40;;;;;;;14.73;61.69;99722.77;235795;1195;138664;-61
2021/09/28 19:17:29;;;;;;;13.50;7.20;;;;;;;14.68;61.70;99727.62;235807;1196;138495;-60
2021/09/28 19:22:33;;;;;;;9.80;6.20;;;;;;;14.59;61.72;99724.95;236285;1195;139114;-61
2021/09/28 19:27:36;;;;;;;8.90;5.80;;;;;;;14.57;61.93;99726.75;236357;1195;139878;-60
2021/09/28 19:32:41;;;;;;;9.60;6.30;;;;;;;14.59;62.00;99724.13;235788;1195;139515;-61
2021/09/28 19:37:47;;;;;;;10.70;6.50;;;;;;;14.59;62.08;99722.09;235734;1196;138650;-60
2021/09/28 19:42:57;;;;;;;10.30;6.20;;;;;;;14.59;61.98;99720.54;236175;1195;138997;-60
2021/09/28 19:48:05;;;;;;;11.70;6.40;;;;;;;14.55;62.02;99720.08;236074;1194;141162;-63
2021/09/28 19:53:09;;;;;;;;;;;;;;;14.48;62.07;99724.14;235704;1195;140231;-61
2021/09/28 19:58:28;;;;;;;10.80;5.90;;;;;;;14.37;61.99;99718.58;235679;1196;125730;-61
2021/09/28 20:03:53;;;;;;;11.40;5.90;;;;;;;14.30;62.16;99725.85;235908;1195;140079;-61
2021/09/28 20:36:05;;;;;;;8.90;5.30;;;;;;;14.11;62.90;99723.50;236226;1195;139663;-61
2021/09/28 20:41:12;;;;;;;8.90;6.20;;;;;;;14.10;62.88;99719.69;236092;1194;138872;-61
2021/09/28 20:46:17;;;;;;;9.40;6.30;;;;;;;14.05;62.88;99718.21;235866;1195;140040;-60
2021/09/28 20:51:20;;;;;;;10.30;6.10;;;;;;;13.99;63.00;99717.35;235522;1195;140266;-61
2021/09/28 20:56:24;;;;;;;9.40;6.10;;;;;;;13.90;63.07;99721.14;236232;1195;142570;-61
2021/09/28 21:01:28;;;;;;;8.30;5.30;;;;;;;13.80;63.08;99720.14;236005;1195;139246;-64
2021/09/28 21:06:31;;;;;;;10.60;5.80;;;;;;;13.71;63.23;99714.31;236020;1196;138771;-61
2021/09/28 21:11:34;;;;;;;11.00;6.10;;;;;;;13.66;63.29;99713.20;235595;1195;141233;-63
2021/09/28 21:16:38;;;;;;;9.70;5.50;;;;;;;13.66;63.34;99712.52;236131;1194;139550;-62
2021/09/28 21:21:41;;;;;;;13.30;6.20;;;;;;;13.65;63.47;99709.33;236313;1195;139094;-62
2021/09/28 21:26:47;;;;;;;220.70;136.90;;;;;;;13.64;63.56;99707.61;235666;1196;139667;-62
2021/09/28 21:31:50;;;;;;;12.20;8.40;;;;;;;13.65;63.69;99711.11;235521;1195;139896;-65
2021/09/28 21:36:57;;;;;;;11.40;6.60;;;;;;;13.61;63.36;99715.89;236214;1195;139403;-60
2021/09/28 21:42:02;;;;;;;9.80;5.70;;;;;;;13.53;63.43;99709.64;236085;1195;139334;-60
2021/09/28 21:47:06;;;;;;;12.20;5.50;;;;;;;13.45;63.55;99704.02;235924;1195;139207;-62
2021/09/28 21:52:09;;;;;;;10.40;5.90;;;;;;;13.40;63.38;99699.91;235508;1196;139218;-62
2021/09/28 21:57:12;;;;;;;10.40;5.30;;;;;;;13.34;63.53;99706.70;235469;1196;139485;-64
2021/09/28 22:02:15;;;;;;;11.50;5.70;;;;;;;13.31;63.62;99705.29;236073;1195;139198;-61
2021/09/28 22:07:19;;;;;;;10.50;5.40;;;;;;;13.31;63.59;99705.81;234306;1195;139754;-60
2021/09/28 22:12:23;;;;;;;8.10;5.20;;;;;;;13.31;63.67;99706.70;234552;1195;140742;-60
2021/09/28 22:17:29;;;;;;;11.10;5.90;;;;;;;13.28;63.46;99704.76;234429;1194;139199;-61
2021/09/28 22:22:35;;;;;;;11.40;6.10;;;;;;;13.19;63.59;99702.98;234728;1195;139023;-60
2021/09/28 22:27:40;;;;;;;13.00;5.80;;;;;;;13.09;63.58;99697.34;234613;1180;138344;-62
2021/09/28 22:32:44;;;;;;;11.20;5.90;;;;;;;13.00;63.65;99692.35;234164;1195;140287;-62
2021/09/28 22:37:59;;;;;;;8.70;5.50;;;;;;;12.94;63.66;99694.19;234189;1195;138895;-59
2021/09/28 22:43:08;;;;;;;10.00;6.30;;;;;;;12.85;63.68;99691.14;234862;1196;138584;-63
2021/09/28 22:48:13;;;;;;;9.50;5.80;;;;;;;12.77;63.83;99700.17;235053;1195;140409;-61
2021/09/28 22:53:20;;;;;;;8.40;5.70;;;;;;;12.73;63.88;99699.34;234305;1195;140813;-61
2021/09/28 22:58:26;;;;;;;9.20;5.80;;;;;;;12.70;64.00;99696.86;234786;1195;138914;-61
2021/09/28 23:03:50;;;;;;;10.80;6.20;;;;;;;12.69;63.91;99692.81;234926;1195;138491;-63
2021/09/28 23:08:53;;;;;;;9.10;6.10;;;;;;;12.66;63.94;99687.83;234457;1195;140654;-60
2021/09/28 23:13:57;;;;;;;11.20;6.40;;;;;;;12.62;63.91;99681.89;234797;1195;138882;-61
2021/09/28 23:19:12;;;;;;;10.10;7.20;;;;;;;12.54;63.72;99681.64;234680;1195;139569;-64
2021/09/28 23:24:15;;;;;;;14.70;9.60;;;;;;;12.45;63.75;99683.40;236418;1195;138775;-62
2021/09/28 23:29:18;;;;;;;15.70;9.70;;;;;;;12.39;63.88;99681.63;236386;1195;139905;-64
2021/09/28 23:34:21;;;;;;;10.70;7.60;;;;;;;12.35;63.77;99674.95;236109;1195;140043;-61
2021/09/28 23:39:24;;;;;;;12.40;7.10;;;;;;;12.29;63.88;99668.69;235850;1195;139068;-63
2021/09/28 23:44:27;;;;;;;9.50;5.80;;;;;;;12.25;63.73;99666.27;235748;1195;139994;-61
2021/09/28 23:49:30;;;;;;;10.50;6.40;;;;;;;12.25;64.11;99664.85;236108;1195;139630;-61
2021/09/28 23:54:33;;;;;;;11.20;6.30;;;;;;;12.23;63.99;99663.94;235715;1196;139428;-61
2021/09/28 23:59:36;;;;;;;13.10;6.60;;;;;;;12.21;64.03;99659.96;235680;1196;139311;-63
